createdAt,value
2023-01-06T00:04:04.533Z,2.67
2023-01-06T00:09:09.072Z,3.20
2023-01-06T00:14:15.276Z,2.50
2023-01-06T00:19:19.881Z,3.97
2023-01-06T00:24:24.407Z,2.33
2023-01-06T00:29:30.352Z,2.92
2023-01-06T00:34:34.900Z,3.88
2023-01-06T00:39:39.175Z,4.20
2023-01-06T00:44:44.917Z,6.75
2023-01-06T00:49:49.522Z,3.28
2023-01-06T00:54:53.859Z,3.42
2023-01-06T00:59:59.934Z,3.25
2023-01-06T01:05:05.080Z,3.20
2023-01-06T01:10:10.959Z,2.85
2023-01-06T01:15:16.949Z,3.00
2023-01-06T01:20:21.380Z,1.27
2023-01-06T01:25:27.529Z,0.82
2023-01-06T01:30:33.898Z,0.98
2023-01-06T01:35:38.300Z,0.90
2023-01-06T01:40:49.036Z,1.13
2023-01-06T01:45:57.209Z,0.85
2023-01-06T01:51:06.044Z,0.70
2023-01-06T01:56:14.868Z,1.20
2023-01-06T02:01:20.969Z,1.38
2023-01-06T02:06:27.651Z,0.90
2023-01-06T02:11:35.572Z,1.02
2023-01-06T02:16:58.905Z,1.63
2023-01-06T02:22:25.360Z,1.13
2023-01-06T02:28:08.959Z,1.00
2023-01-06T02:33:27.674Z,1.25
2023-01-06T02:38:58.540Z,1.23
2023-01-06T02:44:12.191Z,1.50
2023-01-06T02:49:29.219Z,1.40
2023-01-06T02:54:42.712Z,1.60
2023-01-06T02:59:55.515Z,1.10
2023-01-06T03:05:07.250Z,1.30
2023-01-06T03:10:14.781Z,1.27
2023-01-06T03:15:19.374Z,1.73
2023-01-06T03:20:27.123Z,1.38
2023-01-06T03:25:31.913Z,1.52
2023-01-06T03:30:43.049Z,1.73
2023-01-06T03:36:00.982Z,1.42
2023-01-06T03:41:16.729Z,1.50
2023-01-06T03:46:26.809Z,1.33
2023-01-06T03:51:46.447Z,1.95
2023-01-06T03:56:58.929Z,1.30
2023-01-06T04:02:06.404Z,1.75
2023-01-06T04:07:12.684Z,1.75
2023-01-06T04:12:48.551Z,1.95
2023-01-06T04:17:57.531Z,1.77
2023-01-06T04:23:04.691Z,2.33
2023-01-06T04:28:13.989Z,1.70
2023-01-06T04:33:19.388Z,1.55
2023-01-06T04:38:28.170Z,1.50
2023-01-06T04:43:32.775Z,1.63
2023-01-06T04:48:37.324Z,1.85
2023-01-06T04:53:43.627Z,1.80
2023-01-06T04:58:48.187Z,1.80
2023-01-06T05:03:53.398Z,2.00
2023-01-06T05:08:59.395Z,1.60
2023-01-06T05:14:03.949Z,2.00
2023-01-06T05:19:08.495Z,1.92
2023-01-06T05:24:15.122Z,1.90
2023-01-06T05:29:19.762Z,1.70
2023-01-06T05:34:24.389Z,1.90
2023-01-06T05:39:32.702Z,2.25
2023-01-06T05:44:38.406Z,1.83
2023-01-06T05:49:42.920Z,1.60
2023-01-06T05:54:49.168Z,1.80
2023-01-06T05:59:53.593Z,1.95
2023-01-06T06:04:58.122Z,1.67
2023-01-06T06:10:04.188Z,1.90
2023-01-06T06:15:09.532Z,2.40
2023-01-06T06:20:14.082Z,1.95
2023-01-06T06:25:20.059Z,2.28
2023-01-06T06:30:24.626Z,2.65
2023-01-06T06:35:31.465Z,2.60
2023-01-06T06:40:38.490Z,2.38
2023-01-06T06:45:45.838Z,1.83
2023-01-06T06:50:58.408Z,2.83
2023-01-06T06:56:05.751Z,2.92
2023-01-06T07:01:14.251Z,3.17
2023-01-06T07:06:21.312Z,3.45
2023-01-06T07:11:27.436Z,3.00
2023-01-06T07:16:32.033Z,2.45
2023-01-06T07:21:36.449Z,3.03
2023-01-06T07:26:42.312Z,3.35
2023-01-06T07:31:46.855Z,4.35
2023-01-06T07:36:51.272Z,4.43
2023-01-06T07:41:59.580Z,4.45
2023-01-06T07:47:04.215Z,4.40
2023-01-06T07:52:09.325Z,4.10
2023-01-06T07:57:17.875Z,4.33
2023-01-06T08:02:22.852Z,4.20
2023-01-06T08:07:27.619Z,3.40
2023-01-06T08:12:33.839Z,3.95
2023-01-06T08:17:38.522Z,3.30
2023-01-06T08:22:43.158Z,3.25
2023-01-06T08:27:48.971Z,2.70
2023-01-06T08:32:53.390Z,3.10
2023-01-06T08:37:58.022Z,3.38
2023-01-06T08:43:03.975Z,3.20
2023-01-06T08:48:08.431Z,6.28
2023-01-06T08:53:14.275Z,3.08
2023-01-06T09:03:24.291Z,2.77
2023-01-06T09:08:28.734Z,3.20
2023-01-06T09:13:34.783Z,4.55
2023-01-06T09:18:39.658Z,3.38
2023-01-06T09:23:44.343Z,2.65
2023-01-06T09:28:50.192Z,3.75
2023-01-06T09:38:59.214Z,3.47
2023-01-06T09:44:12.296Z,3.58
2023-01-06T09:49:25.380Z,3.00
2023-01-06T09:54:34.888Z,2.80
2023-01-06T09:59:48.059Z,2.25
2023-01-06T10:04:52.488Z,3.25
2023-01-06T10:10:11.421Z,2.60
2023-01-06T10:15:27.882Z,2.55
2023-01-06T10:20:56.184Z,3.50
2023-01-06T10:26:07.393Z,2.60
2023-01-06T10:31:18.309Z,3.00
2023-01-06T10:36:32.032Z,3.33
2023-01-06T10:41:45.472Z,3.30
2023-01-06T10:46:51.475Z,2.47
2023-01-06T10:52:02.914Z,3.20
2023-01-06T10:57:16.770Z,2.85
2023-01-06T11:02:25.043Z,3.53
2023-01-06T11:07:30.658Z,7.60
2023-01-06T11:12:35.214Z,2.83
2023-01-06T11:17:41.151Z,5.43
2023-01-06T11:28:10.936Z,7.60
2023-01-06T11:33:19.928Z,4.03
2023-01-06T11:38:25.245Z,4.18
2023-01-06T11:43:33.721Z,4.80
2023-01-06T11:48:45.366Z,4.22
2023-01-06T11:53:57.968Z,5.95
2023-01-06T11:59:10.855Z,4.93
2023-01-06T12:04:25.595Z,8.57
2023-01-06T12:09:35.442Z,6.95
2023-01-06T12:14:41.023Z,8.23
2023-01-06T12:19:51.238Z,6.97
2023-01-06T12:24:58.861Z,5.50
2023-01-06T12:30:07.612Z,6.47
2023-01-06T12:35:18.429Z,6.97
2023-01-06T12:40:30.622Z,6.75
2023-01-06T12:45:49.742Z,13.45
2023-01-06T12:51:10.608Z,5.70
2023-01-06T12:56:41.863Z,7.15
2023-01-06T13:01:52.791Z,20.67
2023-01-06T13:07:11.992Z,7.85
2023-01-06T13:12:45.730Z,7.53
2023-01-06T13:17:59.572Z,6.45
2023-01-06T13:23:22.551Z,5.68
2023-01-06T13:28:38.485Z,6.93
2023-01-06T13:33:58.875Z,7.20
2023-01-06T13:39:11.391Z,7.78
2023-01-06T13:44:19.786Z,7.47
2023-01-06T13:49:24.238Z,10.98
2023-01-06T13:55:02.769Z,9.93
2023-01-06T14:00:17.405Z,10.90
2023-01-06T14:05:55.269Z,22.85
2023-01-06T14:11:07.486Z,15.40
2023-01-06T14:16:13.867Z,19.60
2023-01-06T14:21:23.474Z,14.80
2023-01-06T14:26:54.757Z,12.60
2023-01-06T14:31:59.367Z,11.85
2023-01-06T14:37:05.072Z,11.55
2023-01-06T14:42:18.528Z,10.55
2023-01-06T14:47:31.823Z,10.90
2023-01-06T14:52:39.980Z,11.50
2023-01-06T14:57:45.971Z,15.10
2023-01-06T15:02:53.712Z,15.10
2023-01-06T15:08:01.685Z,14.27
2023-01-06T15:13:22.610Z,13.45
2023-01-06T15:18:27.243Z,20.73
2023-01-06T15:23:32.398Z,24.70
2023-01-06T15:28:38.862Z,29.13
2023-01-06T15:33:44.039Z,22.42
2023-01-06T15:38:51.863Z,22.60
2023-01-06T15:44:00.708Z,20.98
2023-01-06T15:49:07.231Z,19.95
2023-01-06T15:54:16.066Z,21.27
2023-01-06T15:59:22.826Z,22.73
2023-01-06T16:04:28.731Z,21.60
2023-01-06T16:09:38.001Z,36.58
2023-01-06T16:14:49.386Z,30.50
2023-01-06T16:20:01.640Z,24.13
2023-01-06T16:25:22.608Z,26.85
2023-01-06T16:30:29.475Z,27.08
2023-01-06T16:35:35.714Z,29.02
2023-01-06T16:40:42.671Z,29.10
2023-01-06T16:45:51.893Z,32.78
2023-01-06T16:50:57.750Z,32.55
2023-01-06T17:01:16.574Z,34.72
2023-01-06T17:06:23.136Z,32.80
2023-01-06T17:11:31.838Z,32.85
2023-01-06T17:16:42.411Z,34.80
2023-01-06T17:21:47.499Z,30.77
2023-01-06T17:26:53.987Z,30.63
2023-01-06T17:32:03.954Z,28.75
2023-01-06T17:37:14.688Z,30.33
2023-01-06T17:42:30.706Z,29.77
2023-01-06T17:47:46.086Z,31.17
2023-01-06T17:53:10.517Z,33.03
2023-01-06T17:58:17.156Z,31.00
2023-01-06T18:03:26.105Z,28.55
2023-01-06T18:08:33.441Z,24.00
2023-01-06T18:13:40.023Z,24.20
2023-01-06T18:18:46.116Z,22.40
2023-01-06T18:23:53.319Z,19.08
2023-01-06T18:29:01.428Z,21.02
2023-01-06T18:34:30.372Z,20.00
2023-01-06T18:39:44.841Z,18.02
2023-01-06T18:44:49.652Z,17.98
2023-01-06T18:50:02.234Z,18.87
2023-01-06T18:55:22.911Z,18.42
2023-01-06T19:00:37.487Z,19.85
2023-01-06T19:05:44.145Z,19.40
2023-01-06T19:10:51.053Z,22.85
2023-01-06T19:15:57.122Z,22.25
2023-01-06T19:21:06.898Z,20.80
2023-01-06T19:26:24.055Z,21.33
2023-01-06T19:31:32.165Z,22.13
2023-01-06T19:36:42.565Z,24.00
2023-01-06T19:41:47.345Z,23.67
2023-01-06T19:46:52.044Z,24.33
2023-01-06T19:51:58.820Z,23.92
2023-01-06T19:57:08.401Z,20.58
2023-01-06T20:02:26.115Z,17.90
2023-01-06T20:07:33.367Z,18.48
2023-01-06T20:12:37.931Z,18.15
2023-01-06T20:17:45.696Z,16.30
2023-01-06T20:22:51.792Z,16.80
2023-01-06T20:27:56.282Z,13.45
2023-01-06T20:33:02.196Z,12.70
2023-01-06T20:38:08.859Z,11.68
2023-01-06T20:43:13.472Z,11.18
2023-01-06T20:48:17.897Z,11.80
2023-01-06T20:53:24.003Z,10.93
2023-01-06T20:58:28.776Z,14.40
2023-01-06T21:03:33.523Z,16.48
2023-01-06T21:08:39.937Z,10.50
2023-01-06T21:13:44.744Z,9.15
2023-01-06T21:18:49.358Z,12.00
2023-01-06T21:23:56.346Z,11.63
2023-01-06T21:29:00.957Z,12.43
2023-01-06T21:34:05.385Z,9.80
2023-01-06T21:39:11.239Z,11.13
2023-01-06T21:44:15.611Z,8.27
2023-01-06T21:49:20.036Z,10.05
2023-01-06T21:54:26.090Z,10.07
2023-01-06T21:59:30.969Z,6.85
2023-01-06T22:04:35.603Z,6.60
2023-01-06T22:09:45.730Z,7.37
2023-01-06T22:14:51.701Z,5.55
2023-01-06T22:19:57.095Z,7.35
2023-01-06T22:25:04.286Z,6.53
2023-01-06T22:30:10.442Z,6.65
2023-01-06T22:35:16.277Z,6.10
2023-01-06T22:40:22.611Z,6.70
2023-01-06T22:45:27.123Z,6.18
2023-01-06T22:50:31.688Z,8.02
2023-01-06T22:55:37.909Z,5.97
2023-01-06T23:00:42.393Z,7.07
2023-01-06T23:05:54.800Z,6.63
2023-01-06T23:11:02.080Z,7.00
2023-01-06T23:16:09.392Z,8.55
2023-01-06T23:21:18.349Z,7.05
2023-01-06T23:26:26.594Z,5.68
2023-01-06T23:31:33.505Z,7.53
2023-01-06T23:36:38.752Z,6.45
2023-01-06T23:41:44.866Z,5.67
2023-01-06T23:46:49.583Z,6.00
2023-01-06T23:51:54.036Z,5.30
2023-01-06T23:56:59.843Z,5.70
